Time;durP1;ratioP1;P1;durP2;ratioP2;P2;SDS_P1;SDS_P2;PMS_P1;PMS_P2;Temp;Humidity;BMP_temperature;BMP_pressure;BME280_temperature;BME280_humidity;BME280_pressure;Samples;Min_cycle;Max_cycle;Signal;HPM_P1;HPM_P2
2022/06/22 00:00:16;;;;;;;12.18;3.92;;;17.00;81.50;;;;;;4978664;28;20027;-86
2022/06/22 00:02:43;;;;;;;8.27;3.65;;;17.00;81.80;;;;;;4995194;28;20030;-86
2022/06/22 00:05:21;;;;;;;6.78;3.33;;;17.00;82.00;;;;;;4994008;28;20034;-88
2022/06/22 00:08:00;;;;;;;9.85;4.13;;;17.00;82.20;;;;;;4997543;28;20026;-87
2022/06/22 00:10:55;;;;;;;11.25;4.05;;;16.90;82.40;;;;;;4996457;28;20029;-87
2022/06/22 00:13:32;;;;;;;9.60;3.90;;;16.90;82.50;;;;;;4993960;28;20044;-85
2022/06/22 00:16:06;;;;;;;10.77;4.30;;;16.90;82.60;;;;;;4995206;28;20039;-85
2022/06/22 00:18:38;;;;;;;8.77;3.88;;;16.80;82.70;;;;;;4995454;28;20023;-85
2022/06/22 00:21:40;;;;;;;10.63;4.30;;;16.80;83.20;;;;;;4995857;28;20061;-85
2022/06/22 00:24:24;;;;;;;8.70;3.80;;;16.80;83.20;;;;;;5013173;28;20029;-86
2022/06/22 00:26:56;;;;;;;6.53;4.22;;;16.70;83.20;;;;;;4996510;28;20033;-86
2022/06/22 00:29:25;;;;;;;8.98;3.92;;;16.70;83.30;;;;;;4996424;28;20027;-86
2022/06/22 00:31:50;;;;;;;8.57;4.32;;;16.70;83.50;;;;;;4997495;28;20106;-87
2022/06/22 00:34:16;;;;;;;12.55;3.80;;;16.60;83.60;;;;;;4996130;28;20120;-87
2022/06/22 00:36:41;;;;;;;7.20;3.92;;;16.60;83.70;;;;;;4996135;28;20050;-88
2022/06/22 00:39:30;;;;;;;9.63;3.97;;;16.50;83.90;;;;;;4997344;28;20022;-87
2022/06/22 00:42:14;;;;;;;8.07;3.67;;;16.50;84.10;;;;;;4995843;28;20109;-87
2022/06/22 00:44:56;;;;;;;4.88;3.45;;;16.50;84.10;;;;;;4996866;28;20077;-86
2022/06/22 00:47:34;;;;;;;10.60;4.55;;;16.50;84.30;;;;;;4995543;28;20019;-87
2022/06/22 00:50:27;;;;;;;9.57;4.60;;;16.40;84.40;;;;;;5000846;28;20018;-85
2022/06/22 00:53:04;;;;;;;10.25;4.80;;;16.40;84.70;;;;;;4997202;28;20049;-87
2022/06/22 00:55:35;;;;;;;9.00;4.40;;;16.30;84.70;;;;;;4997611;28;20034;-88
2022/06/22 00:58:10;;;;;;;9.30;3.97;;;16.40;85.00;;;;;;4997620;28;20022;-86
2022/06/22 01:00:39;;;;;;;10.55;4.20;;;16.30;85.30;;;;;;4997023;28;20022;-88
2022/06/22 01:03:21;;;;;;;10.82;4.32;;;16.30;85.40;;;;;;4999115;28;20018;-88
2022/06/22 01:05:59;;;;;;;9.07;4.18;;;16.20;85.60;;;;;;5003639;28;20045;-87
2022/06/22 01:08:45;;;;;;;10.73;5.10;;;16.20;85.90;;;;;;5021978;28;20489;-88
2022/06/22 01:12:16;;;;;;;10.93;4.88;;;16.20;86.50;;;;;;5020448;28;20026;-88
2022/06/22 01:14:05;;;;;;;12.18;5.25;;;16.10;86.20;;;;;;5016480;28;20080;-87
2022/06/22 01:16:36;;;;;;;9.57;5.70;;;16.10;86.40;;;;;;5017415;28;20050;-89
2022/06/22 01:19:10;;;;;;;12.73;4.97;;;16.10;87.00;;;;;;5022906;28;20025;-89
2022/06/22 01:21:40;;;;;;;10.65;4.90;;;16.00;87.60;;;;;;5021644;28;20022;-90
2022/06/22 01:24:34;;;;;;;9.45;5.28;;;16.00;87.00;;;;;;5023552;28;20088;-88
2022/06/22 01:27:18;;;;;;;9.82;4.85;;;16.00;87.50;;;;;;5018820;28;20090;-87
2022/06/22 01:29:53;;;;;;;11.60;5.07;;;15.90;87.40;;;;;;5020219;28;20065;-89
2022/06/22 01:32:28;;;;;;;8.38;5.03;;;15.90;87.70;;;;;;5019059;28;20013;-89
2022/06/22 01:34:57;;;;;;;10.48;5.80;;;15.80;87.90;;;;;;5017445;28;20033;-89
2022/06/22 01:37:32;;;;;;;10.85;5.68;;;15.80;88.10;;;;;;5017939;28;20093;-89
2022/06/22 01:40:13;;;;;;;16.92;5.63;;;15.80;88.30;;;;;;5017289;28;20036;-89
2022/06/22 01:43:03;;;;;;;12.80;5.38;;;15.80;88.50;;;;;;5015099;28;20438;-89
2022/06/22 01:45:42;;;;;;;10.02;5.15;;;15.80;88.70;;;;;;5015333;28;20084;-89
2022/06/22 01:48:26;;;;;;;9.18;4.55;;;15.70;88.80;;;;;;5014680;28;20030;-89
2022/06/22 01:51:17;;;;;;;11.05;5.20;;;15.80;88.80;;;;;;5015850;28;20366;-89
2022/06/22 01:54:04;;;;;;;10.68;4.95;;;15.70;89.00;;;;;;5014656;28;20581;-88
2022/06/22 01:56:53;;;;;;;13.00;6.32;;;15.70;89.30;;;;;;5014815;28;20084;-88
2022/06/22 01:59:52;;;;;;;10.77;5.50;;;15.60;89.30;;;;;;5016005;28;20053;-89
2022/06/22 02:02:24;;;;;;;10.80;5.72;;;15.60;89.90;;;;;;5016125;28;20022;-88
2022/06/22 02:05:02;;;;;;;12.30;6.82;;;15.50;89.90;;;;;;5021693;28;20026;-88
2022/06/22 02:07:46;;;;;;;11.60;6.70;;;15.50;89.80;;;;;;5020175;28;20068;-87
2022/06/22 02:10:42;;;;;;;10.13;5.80;;;15.50;90.00;;;;;;5019343;28;20044;-86
2022/06/22 02:13:20;;;;;;;11.77;5.53;;;15.50;89.90;;;;;;5014581;28;20017;-87
2022/06/22 02:15:53;;;;;;;10.52;6.25;;;15.40;90.00;;;;;;5013917;28;20470;-87
2022/06/22 02:18:30;;;;;;;11.85;6.65;;;15.50;90.00;;;;;;5015281;28;20022;-88
2022/06/22 02:20:59;;;;;;;12.48;6.80;;;15.40;90.10;;;;;;5011288;28;20351;-87
2022/06/22 02:23:30;;;;;;;10.05;6.10;;;15.30;90.10;;;;;;4993916;28;20030;-87
2022/06/22 02:26:16;;;;;;;14.77;6.93;;;15.30;90.20;;;;;;4994087;28;20049;-86
2022/06/22 02:28:43;;;;;;;14.02;6.38;;;15.30;90.30;;;;;;4993068;28;20120;-86
2022/06/22 02:31:09;;;;;;;10.68;6.57;;;15.30;90.30;;;;;;4993458;28;20022;-85
2022/06/22 02:33:39;;;;;;;12.68;7.03;;;15.30;90.40;;;;;;4977504;28;20181;-86
2022/06/22 02:36:06;;;;;;;11.68;6.47;;;15.20;90.50;;;;;;4994032;28;20018;-86
2022/06/22 02:38:32;;;;;;;13.32;7.10;;;15.20;90.50;;;;;;4993635;28;20023;-86
2022/06/22 02:46:33;;;;;;;13.85;6.55;;;15.10;90.70;;;;;;4994633;28;20041;-86
2022/06/22 02:49:10;;;;;;;12.98;7.85;;;15.10;90.80;;;;;;4994559;28;20025;-86
2022/06/22 02:51:47;;;;;;;12.15;7.15;;;15.10;90.80;;;;;;4994079;28;20459;-88
2022/06/22 02:54:51;;;;;;;11.48;7.35;;;15.00;90.80;;;;;;4994264;28;20605;-89
2022/06/22 02:57:22;;;;;;;15.50;7.05;;;15.00;90.90;;;;;;4973576;28;20536;-88
2022/06/22 02:59:50;;;;;;;11.68;7.47;;;15.00;91.10;;;;;;4994222;28;20080;-89
2022/06/22 03:02:17;;;;;;;11.35;6.80;;;14.90;91.30;;;;;;4995554;28;20026;-88
2022/06/22 03:04:46;;;;;;;9.85;7.15;;;14.90;91.30;;;;;;5000005;28;20026;-85
2022/06/22 03:07:12;;;;;;;11.30;7.43;;;14.90;91.40;;;;;;4998496;28;20051;-87
2022/06/22 03:09:39;;;;;;;10.82;7.53;;;14.90;91.50;;;;;;4995241;28;20026;-88
2022/06/22 03:12:05;;;;;;;11.77;7.28;;;14.90;91.50;;;;;;4994055;28;20023;-88
2022/06/22 03:15:07;;;;;;;14.40;8.00;;;14.90;91.80;;;;;;4993525;28;20100;-85
2022/06/22 03:17:38;;;;;;;11.32;7.30;;;14.90;91.60;;;;;;4992991;28;20049;-86
2022/06/22 03:20:14;;;;;;;17.50;7.85;;;14.90;91.70;;;;;;4993390;28;20473;-87
2022/06/22 03:22:43;;;;;;;11.20;7.10;;;14.80;91.60;;;;;;4993389;28;20113;-86
2022/06/22 03:25:26;;;;;;;11.07;7.88;;;14.80;91.60;;;;;;4994681;28;20036;-85
2022/06/22 03:27:55;;;;;;;12.98;7.57;;;14.80;91.60;;;;;;4994103;28;20022;-86
2022/06/22 03:30:26;;;;;;;12.07;7.38;;;14.80;91.70;;;;;;4994458;28;20022;-88
2022/06/22 03:33:00;;;;;;;12.60;7.30;;;14.80;91.70;;;;;;4993697;28;20022;-89
2022/06/22 03:35:38;;;;;;;12.73;8.32;;;14.80;91.70;;;;;;4994829;28;20038;-89
2022/06/22 03:38:19;;;;;;;13.82;6.95;;;14.80;91.80;;;;;;4994153;28;20117;-90
2022/06/22 03:40:54;;;;;;;14.60;7.65;;;14.70;91.80;;;;;;4994786;28;20466;-90
2022/06/22 03:43:26;;;;;;;11.13;6.63;;;14.80;91.90;;;;;;4994439;28;20028;-89
2022/06/22 03:46:05;;;;;;;12.55;7.72;;;14.70;91.90;;;;;;4992606;28;20478;-87
2022/06/22 03:49:12;;;;;;;11.05;7.72;;;14.70;92.00;;;;;;4993689;28;20103;-87
2022/06/22 03:51:48;;;;;;;13.23;8.63;;;14.70;92.10;;;;;;4994919;28;20041;-85
2022/06/22 03:54:14;;;;;;;12.00;7.45;;;14.70;92.20;;;;;;4997019;28;20058;-86
2022/06/22 03:56:45;;;;;;;12.82;7.68;;;14.70;92.30;;;;;;4997450;28;20060;-89
2022/06/22 03:59:10;;;;;;;14.32;7.18;;;14.70;92.30;;;;;;4996790;28;20550;-86
2022/06/22 04:01:36;;;;;;;11.20;7.43;;;14.70;92.40;;;;;;4998085;28;20046;-89
2022/06/22 04:04:03;;;;;;;13.75;7.65;;;14.70;92.40;;;;;;4994842;28;20034;-90
2022/06/22 04:06:33;;;;;;;13.48;7.82;;;14.70;92.50;;;;;;4998494;28;20033;-89
2022/06/22 04:09:01;;;;;;;13.43;8.25;;;14.80;92.60;;;;;;5015970;28;20040;-88
2022/06/22 04:11:51;;;;;;;12.77;7.30;;;14.80;92.60;;;;;;5018909;28;20520;-88
2022/06/22 04:14:19;;;;;;;11.63;7.32;;;14.80;92.60;;;;;;5017088;28;20049;-88
2022/06/22 04:17:08;;;;;;;19.95;9.13;;;14.80;92.70;;;;;;5017278;28;20040;-89
2022/06/22 04:19:46;;;;;;;12.35;7.05;;;14.80;92.70;;;;;;5017289;28;20038;-87
2022/06/22 04:22:17;;;;;;;11.98;7.75;;;14.80;92.70;;;;;;5016561;28;20123;-88
2022/06/22 04:24:46;;;;;;;9.65;6.90;;;14.80;92.70;;;;;;5017243;28;20026;-88
2022/06/22 04:27:15;;;;;;;14.52;7.25;;;14.80;92.70;;;;;;5017208;28;20446;-87
2022/06/22 04:30:05;;;;;;;11.15;7.05;;;14.80;92.70;;;;;;5015749;28;20057;-87
2022/06/22 04:32:40;;;;;;;11.45;7.53;;;14.90;92.70;;;;;;5015878;28;20112;-87
2022/06/22 04:35:24;;;;;;;14.10;7.95;;;14.90;92.70;;;;;;5015597;28;20385;-87
2022/06/22 04:38:08;;;;;;;11.93;7.20;;;14.90;92.70;;;;;;5015831;28;20032;-88
2022/06/22 04:40:46;;;;;;;15.27;7.15;;;14.90;92.70;;;;;;5015765;28;20079;-88
2022/06/22 04:43:12;;;;;;;12.15;6.45;;;14.90;92.60;;;;;;5016061;28;20057;-88
2022/06/22 04:45:42;;;;;;;11.65;6.28;;;14.90;92.60;;;;;;5016164;28;20033;-88
2022/06/22 04:48:11;;;;;;;13.63;7.90;;;15.00;92.70;;;;;;5017554;28;20018;-88
2022/06/22 04:50:41;;;;;;;10.13;6.93;;;15.00;92.60;;;;;;5017807;28;20033;-89
2022/06/22 04:53:16;;;;;;;12.82;6.68;;;15.10;92.70;;;;;;5017145;28;20018;-88
2022/06/22 04:55:41;;;;;;;11.02;6.93;;;15.10;92.70;;;;;;5015609;28;20025;-87
2022/06/22 04:58:27;;;;;;;9.68;6.47;;;15.20;92.90;;;;;;5016201;28;20037;-88
2022/06/22 05:00:53;;;;;;;10.95;6.80;;;15.20;92.70;;;;;;5015429;28;20029;-89
2022/06/22 05:03:19;;;;;;;12.10;6.35;;;15.20;92.70;;;;;;4998970;28;20017;-89
2022/06/22 05:05:51;;;;;;;13.80;6.78;;;15.20;92.70;;;;;;4999083;28;20461;-91
2022/06/22 05:08:54;;;;;;;11.00;6.28;;;15.30;92.70;;;;;;5000545;28;20025;-89
2022/06/22 05:11:32;;;;;;;9.05;5.65;;;15.30;92.70;;;;;;5009230;28;20068;-86
2022/06/22 05:14:00;;;;;;;12.10;6.95;;;15.30;92.60;;;;;;5014282;28;20053;-87
2022/06/22 05:16:32;;;;;;;12.30;6.93;;;15.40;92.60;;;;;;4997557;28;20117;-86
2022/06/22 05:18:58;;;;;;;16.33;6.55;;;15.40;92.50;;;;;;5014926;28;20029;-88
2022/06/22 05:21:53;;;;;;;13.50;6.30;;;15.40;92.50;;;;;;5016758;28;20466;-87
2022/06/22 05:24:33;;;;;;;11.00;6.47;;;15.50;92.50;;;;;;5003368;28;20030;-88
2022/06/22 05:27:01;;;;;;;12.15;6.13;;;15.50;92.50;;;;;;5015687;28;20049;-87
2022/06/22 05:29:36;;;;;;;10.23;5.63;;;15.50;92.40;;;;;;5016337;28;20028;-90
2022/06/22 05:32:08;;;;;;;11.90;6.47;;;15.60;92.40;;;;;;5014268;28;20361;-83
2022/06/22 05:34:37;;;;;;;10.30;5.80;;;15.60;92.40;;;;;;5014066;28;20030;-82
2022/06/22 05:37:12;;;;;;;12.90;6.13;;;15.60;92.40;;;;;;5013455;28;20041;-82
2022/06/22 05:39:40;;;;;;;9.10;5.38;;;15.70;92.40;;;;;;5013563;28;20025;-82
2022/06/22 05:42:08;;;;;;;8.05;5.22;;;15.70;92.30;;;;;;5013833;28;20409;-82
2022/06/22 05:44:34;;;;;;;11.20;5.40;;;15.80;92.30;;;;;;5014757;28;20025;-82
2022/06/22 05:47:01;;;;;;;12.25;6.47;;;15.80;92.30;;;;;;4997473;28;20025;-84
2022/06/22 05:49:44;;;;;;;10.52;5.47;;;15.90;92.20;;;;;;5010260;28;20022;-83
2022/06/22 05:52:28;;;;;;;12.68;5.60;;;15.90;92.20;;;;;;4993827;28;20088;-83
2022/06/22 05:54:59;;;;;;;12.25;6.68;;;15.90;92.20;;;;;;5005475;28;20030;-82
2022/06/22 05:57:50;;;;;;;10.38;5.60;;;16.00;92.10;;;;;;5003343;28;20022;-83
2022/06/22 06:00:25;;;;;;;9.90;5.55;;;16.00;92.10;;;;;;5001973;28;20060;-83
2022/06/22 06:03:03;;;;;;;8.02;5.20;;;16.10;92.10;;;;;;5012433;28;20025;-83
2022/06/22 06:05:38;;;;;;;13.52;5.47;;;16.10;92.00;;;;;;5004965;28;20519;-83
2022/06/22 06:08:10;;;;;;;9.40;5.35;;;16.20;91.90;;;;;;5005210;28;20458;-81
2022/06/22 06:10:40;;;;;;;9.93;4.85;;;16.20;91.90;;;;;;5013306;28;20014;-84
2022/06/22 06:13:17;;;;;;;10.70;5.18;;;16.20;91.80;;;;;;5008591;28;20044;-82
2022/06/22 06:15:45;;;;;;;6.47;4.68;;;16.30;91.70;;;;;;5012305;28;20042;-82
2022/06/22 06:18:18;;;;;;;7.13;5.20;;;16.30;91.60;;;;;;5000821;28;20022;-82
2022/06/22 06:20:48;;;;;;;7.40;4.47;;;16.30;91.50;;;;;;4999072;28;20025;-83
2022/06/22 06:23:29;;;;;;;9.50;5.88;;;16.40;91.40;;;;;;5002784;28;20042;-83
2022/06/22 06:28:52;;;;;;;9.63;4.30;;;16.50;91.30;;;;;;5004452;28;20041;-82
2022/06/22 06:31:37;;;;;;;9.48;4.10;;;16.50;91.20;;;;;;5010695;28;20061;-83
2022/06/22 06:34:07;;;;;;;;;;;16.60;91.20;;;;;;5014388;28;20040;-82
2022/06/22 06:36:40;;;;;;;10.48;3.83;;;16.60;91.20;;;;;;5012864;28;20000;-83
2022/06/22 06:39:13;;;;;;;9.63;4.25;;;16.70;91.10;;;;;;5011922;28;20030;-82
2022/06/22 06:42:19;;;;;;;7.55;3.65;;;16.70;91.00;;;;;;5013833;28;20053;-83
2022/06/22 06:44:45;;;;;;;7.00;3.20;;;16.80;91.00;;;;;;5004156;28;20072;-82
2022/06/22 06:47:19;;;;;;;8.30;4.45;;;16.80;90.90;;;;;;5013205;28;20109;-82
2022/06/22 06:49:50;;;;;;;6.43;3.17;;;16.80;90.70;;;;;;5012707;28;20061;-82
2022/06/22 06:52:41;;;;;;;5.53;3.38;;;16.90;90.70;;;;;;5012494;28;20018;-83
2022/06/22 06:55:23;;;;;;;7.10;3.35;;;17.00;90.60;;;;;;5013365;28;20041;-83
2022/06/22 06:57:57;;;;;;;6.82;3.45;;;17.10;90.50;;;;;;5013605;28;20026;-83
2022/06/22 07:00:24;;;;;;;11.27;3.33;;;17.10;90.30;;;;;;5011515;28;20032;-82
2022/06/22 07:02:50;;;;;;;12.65;3.70;;;17.20;90.10;;;;;;4995997;28;20050;-82
2022/06/22 07:05:20;;;;;;;9.35;3.05;;;17.20;90.00;;;;;;4992179;28;20418;-82
2022/06/22 07:08:09;;;;;;;7.25;2.83;;;17.30;89.90;;;;;;4993901;28;20030;-83
2022/06/22 07:10:50;;;;;;;5.40;2.70;;;17.30;89.60;;;;;;5005512;28;20109;-83
2022/06/22 07:13:32;;;;;;;6.13;2.05;;;17.40;89.40;;;;;;5012027;28;20030;-81
2022/06/22 07:16:04;;;;;;;6.88;2.67;;;17.50;88.90;;;;;;5011905;28;20045;-83
2022/06/22 07:18:42;;;;;;;5.57;2.13;;;17.60;88.40;;;;;;4996048;28;20030;-82
2022/06/22 07:21:36;;;;;;;6.45;2.58;;;17.60;88.00;;;;;;5011915;28;20353;-83
2022/06/22 07:24:08;;;;;;;5.10;2.35;;;17.70;87.80;;;;;;5004264;28;20033;-82
2022/06/22 07:26:52;;;;;;;4.45;1.80;;;17.80;87.40;;;;;;5004610;28;20029;-83
2022/06/22 07:29:28;;;;;;;5.28;1.90;;;17.90;87.00;;;;;;4996135;28;20030;-83
2022/06/22 07:32:03;;;;;;;5.03;1.60;;;18.00;86.40;;;;;;5001373;28;20045;-82
2022/06/22 07:34:42;;;;;;;6.75;1.77;;;18.00;85.80;;;;;;5010393;28;20374;-82
2022/06/22 07:37:19;;;;;;;6.35;2.25;;;18.10;85.60;;;;;;5014570;28;20060;-81
2022/06/22 07:39:52;;;;;;;5.47;1.30;;;18.30;85.20;;;;;;5014857;28;20072;-82
2022/06/22 07:42:18;;;;;;;4.75;1.77;;;18.30;84.90;;;;;;5017001;28;20128;-81
2022/06/22 07:44:43;;;;;;;3.58;1.60;;;18.40;84.80;;;;;;4993854;28;20113;-81
2022/06/22 07:47:36;;;;;;;6.35;2.08;;;18.50;84.50;;;;;;5004639;28;20025;-81
2022/06/22 07:50:41;;;;;;;3.03;1.20;;;18.50;84.10;;;;;;5011651;28;20022;-81
2022/06/22 07:53:25;;;;;;;3.92;1.20;;;18.70;83.70;;;;;;4993989;28;20386;-82
2022/06/22 07:55:59;;;;;;;4.70;1.23;;;18.80;82.60;;;;;;4996845;28;20041;-82
2022/06/22 07:58:36;;;;;;;5.88;1.20;;;18.90;82.30;;;;;;5000720;28;20038;-82
2022/06/22 08:01:10;;;;;;;6.55;1.15;;;18.90;82.00;;;;;;4995371;28;20459;-82
2022/06/22 08:03:38;;;;;;;4.72;1.08;;;19.00;81.40;;;;;;5004869;28;20029;-82
2022/06/22 08:06:08;;;;;;;4.75;1.08;;;19.10;81.00;;;;;;5015235;28;20366;-83
2022/06/22 08:08:42;;;;;;;3.42;1.25;;;19.20;80.50;;;;;;5015637;28;20061;-83
2022/06/22 08:11:20;;;;;;;2.67;1.08;;;19.20;79.80;;;;;;5009138;28;20048;-82
2022/06/22 08:13:55;;;;;;;8.40;1.15;;;19.30;79.30;;;;;;5009206;28;20037;-82
2022/06/22 08:16:32;;;;;;;3.58;1.23;;;19.40;79.00;;;;;;5016322;28;20108;-83
2022/06/22 08:19:00;;;;;;;4.15;0.88;;;19.50;78.30;;;;;;5012372;28;20026;-82
2022/06/22 08:21:27;;;;;;;3.70;1.00;;;19.60;77.90;;;;;;5008395;28;20037;-81
2022/06/22 08:23:54;;;;;;;3.05;0.90;;;19.70;77.70;;;;;;5007818;28;20053;-81
2022/06/22 08:26:31;;;;;;;4.43;1.10;;;19.70;77.00;;;;;;5011993;28;20026;-82
2022/06/22 08:28:58;;;;;;;4.95;1.10;;;19.80;77.00;;;;;;5009471;28;20024;-82
2022/06/22 08:31:33;;;;;;;4.30;0.90;;;19.90;75.80;;;;;;4992797;28;20467;-81
2022/06/22 08:34:01;;;;;;;3.03;0.90;;;20.00;75.00;;;;;;5009026;28;20498;-82
2022/06/22 08:36:33;;;;;;;3.35;0.98;;;20.10;73.50;;;;;;4999372;28;20042;-82
2022/06/22 08:39:11;;;;;;;1.67;0.80;;;20.10;73.10;;;;;;4997200;28;20018;-82
2022/06/22 08:42:21;;;;;;;3.10;0.88;;;20.20;72.50;;;;;;5001181;28;20026;-82
2022/06/22 08:45:17;;;;;;;4.53;0.95;;;20.20;72.30;;;;;;4995167;28;20026;-82
2022/06/22 08:48:22;;;;;;;3.38;0.95;;;20.30;71.90;;;;;;4947602;28;20113;-82
2022/06/22 08:51:18;;;;;;;2.95;0.85;;;20.40;71.90;;;;;;5005558;28;20125;-82
2022/06/22 08:54:09;;;;;;;7.38;0.80;;;20.50;71.70;;;;;;4994966;28;20034;-81
2022/06/22 08:57:02;;;;;;;4.82;0.60;;;20.50;71.60;;;;;;4994896;28;20017;-81
2022/06/22 08:59:53;;;;;;;2.17;0.80;;;20.60;70.90;;;;;;4979750;28;20137;-82
2022/06/22 09:02:58;;;;;;;2.80;1.00;;;20.70;70.70;;;;;;5002511;28;20014;-81
2022/06/22 09:05:58;;;;;;;5.22;0.90;;;20.80;68.90;;;;;;5014310;28;20053;-81
2022/06/22 09:08:54;;;;;;;1.52;0.60;;;20.80;68.30;;;;;;5014485;28;20475;-81
2022/06/22 09:11:49;;;;;;;3.45;1.02;;;20.90;67.30;;;;;;5013983;28;20030;-81
2022/06/22 09:14:32;;;;;;;3.63;0.70;;;20.90;67.00;;;;;;5015376;28;20073;-81
2022/06/22 09:17:07;;;;;;;2.08;0.52;;;21.10;67.10;;;;;;5013859;28;20485;-81
2022/06/22 09:19:44;;;;;;;3.83;0.70;;;21.10;67.70;;;;;;5013508;28;20493;-81
2022/06/22 09:22:17;;;;;;;3.33;0.85;;;21.20;65.70;;;;;;5014021;28;20022;-81
2022/06/22 09:25:02;;;;;;;1.67;0.70;;;21.30;65.30;;;;;;5014521;28;20022;-81
2022/06/22 09:28:12;;;;;;;4.50;0.90;;;21.40;65.40;;;;;;5013792;28;20029;-81
2022/06/22 09:30:58;;;;;;;3.13;0.57;;;21.40;65.00;;;;;;4996186;28;20041;-82
2022/06/22 09:33:46;;;;;;;5.30;0.70;;;21.50;64.20;;;;;;5013421;28;20033;-81
2022/06/22 09:36:27;;;;;;;3.72;0.70;;;21.60;63.30;;;;;;5013095;28;20021;-81
2022/06/22 09:38:59;;;;;;;6.30;0.73;;;21.70;63.20;;;;;;5012819;28;20485;-81
2022/06/22 09:41:28;;;;;;;2.65;0.60;;;21.80;62.00;;;;;;5013456;28;20359;-81
2022/06/22 09:44:40;;;;;;;3.03;0.60;;;21.80;61.90;;;;;;5013133;28;20053;-82
2022/06/22 09:47:23;;;;;;;4.30;0.60;;;21.90;61.30;;;;;;5002365;28;20034;-82
2022/06/22 09:50:22;;;;;;;1.80;0.50;;;22.00;61.10;;;;;;5012454;28;20020;-81
2022/06/22 09:52:59;;;;;;;2.28;0.50;;;22.10;59.90;;;;;;5013459;28;20064;-82
2022/06/22 09:58:37;;;;;;;2.33;0.47;;;22.20;58.60;;;;;;5014548;28;20100;-81
2022/06/22 10:01:20;;;;;;;2.55;0.57;;;22.30;58.20;;;;;;5014012;28;20489;-82
2022/06/22 10:03:57;;;;;;;2.50;0.60;;;22.40;57.30;;;;;;5012834;28;20466;-81
2022/06/22 10:06:44;;;;;;;1.85;0.50;;;22.40;57.10;;;;;;5001225;28;20018;-82
2022/06/22 10:09:32;;;;;;;1.90;0.50;;;22.60;57.30;;;;;;4996485;28;20022;-82
2022/06/22 10:12:24;;;;;;;2.90;0.60;;;22.70;57.10;;;;;;5001619;28;20033;-82
2022/06/22 10:14:56;;;;;;;2.65;0.45;;;22.70;57.20;;;;;;4994252;28;20096;-82
2022/06/22 10:17:52;;;;;;;1.08;0.50;;;22.80;57.00;;;;;;4992777;28;20022;-82
2022/06/22 10:20:27;;;;;;;1.60;0.35;;;22.90;56.70;;;;;;4992861;28;20036;-82
2022/06/22 10:23:11;;;;;;;1.42;0.40;;;23.00;56.50;;;;;;4992834;28;20046;-82
2022/06/22 10:25:51;;;;;;;;;;;23.00;55.60;;;;;;4993077;28;20022;-83
2022/06/22 10:28:46;;;;;;;1.02;0.45;;;23.10;55.90;;;;;;5004529;28;20001;-82
2022/06/22 10:31:33;;;;;;;1.67;0.38;;;23.20;55.00;;;;;;4992630;28;20112;-82
2022/06/22 10:34:26;;;;;;;2.67;0.50;;;23.40;54.40;;;;;;4992718;28;20117;-83
2022/06/22 10:37:09;;;;;;;2.55;0.60;;;23.60;54.00;;;;;;4996877;28;20356;-80
2022/06/22 10:39:55;;;;;;;3.58;0.52;;;23.80;53.80;;;;;;4995182;28;20030;-81
2022/06/22 10:45:56;;;;;;;1.38;0.40;;;24.20;52.20;;;;;;5016774;28;20048;-86
2022/06/22 10:48:34;;;;;;;0.98;0.40;;;24.30;52.50;;;;;;5017233;28;20057;-87
2022/06/22 10:51:24;;;;;;;1.63;0.40;;;24.40;53.10;;;;;;5018672;28;20084;-87
2022/06/22 10:54:14;;;;;;;3.25;0.50;;;24.30;53.40;;;;;;5015813;28;20481;-85
2022/06/22 10:57:07;;;;;;;1.52;0.40;;;24.40;53.20;;;;;;5017550;28;20038;-88
2022/06/22 10:59:54;;;;;;;1.73;0.33;;;24.50;52.80;;;;;;5014820;28;20026;-86
2022/06/22 11:02:38;;;;;;;1.83;0.40;;;24.70;52.20;;;;;;5018317;28;20053;-86
2022/06/22 11:05:26;;;;;;;2.30;0.60;;;24.90;52.10;;;;;;5004502;28;20450;-87
2022/06/22 11:08:13;;;;;;;1.55;0.50;;;25.10;52.30;;;;;;5007531;28;20034;-87
2022/06/22 11:10:44;;;;;;;2.00;0.55;;;25.30;51.90;;;;;;5011959;28;20026;-86
2022/06/22 11:13:12;;;;;;;0.85;0.30;;;25.50;51.90;;;;;;5013994;28;20014;-87
2022/06/22 11:16:13;;;;;;;1.75;0.30;;;25.70;51.40;;;;;;5013235;28;20128;-87
2022/06/22 11:19:12;;;;;;;1.13;0.30;;;25.80;50.60;;;;;;5012168;28;20064;-87
2022/06/22 11:21:47;;;;;;;1.73;0.40;;;26.00;49.90;;;;;;5012585;28;20096;-87
2022/06/22 11:24:48;;;;;;;1.33;0.35;;;26.20;50.10;;;;;;5012255;28;20022;-87
2022/06/22 11:31:25;;;;;;;1.25;0.45;;;26.60;48.60;;;;;;5013512;28;20032;-84
2022/06/22 11:33:38;;;;;;;2.65;0.40;;;26.70;48.90;;;;;;4988495;28;20526;-85
2022/06/22 11:36:44;;;;;;;0.88;0.35;;;26.90;48.90;;;;;;5012036;28;20029;-87
2022/06/22 11:39:29;;;;;;;1.50;0.50;;;27.10;48.60;;;;;;5013218;28;20113;-86
2022/06/22 11:42:10;;;;;;;1.45;0.30;;;27.40;48.80;;;;;;5012288;28;20021;-88
2022/06/22 11:48:05;;;;;;;1.98;0.60;;;27.70;47.40;;;;;;5013468;28;20037;-87
2022/06/22 11:50:56;;;;;;;1.42;0.32;;;28.00;46.50;;;;;;5013194;28;20014;-86
2022/06/22 11:53:48;;;;;;;1.73;0.40;;;28.30;46.50;;;;;;5011809;28;20022;-86
2022/06/22 11:56:50;;;;;;;2.30;0.40;;;28.40;46.30;;;;;;5013026;28;20025;-86
2022/06/22 11:59:31;;;;;;;4.13;0.30;;;28.50;45.90;;;;;;5012999;28;20022;-86
2022/06/22 12:02:11;;;;;;;2.97;0.40;;;28.80;46.00;;;;;;5013439;28;20124;-87
2022/06/22 12:04:51;;;;;;;1.27;0.30;;;29.00;45.80;;;;;;5013670;28;20084;-86
2022/06/22 12:07:45;;;;;;;3.47;0.40;;;29.20;45.50;;;;;;5004520;28;20026;-87
2022/06/22 12:10:40;;;;;;;0.93;0.30;;;29.40;44.70;;;;;;5007664;28;20038;-87
2022/06/22 12:13:22;;;;;;;1.30;0.43;;;29.70;44.30;;;;;;5004438;28;20045;-86
2022/06/22 12:15:59;;;;;;;1.55;0.32;;;29.90;44.40;;;;;;5002937;28;20129;-87
2022/06/22 12:18:28;;;;;;;2.70;0.50;;;30.10;44.40;;;;;;4996855;28;20030;-88
2022/06/22 12:21:31;;;;;;;3.08;0.50;;;30.20;43.90;;;;;;4997097;28;20410;-87
2022/06/22 12:24:24;;;;;;;2.10;0.50;;;30.40;43.10;;;;;;4995898;28;20080;-85
2022/06/22 12:27:23;;;;;;;3.20;0.40;;;30.70;43.60;;;;;;5002304;28;20032;-85
2022/06/22 12:30:15;;;;;;;1.08;0.32;;;31.00;43.40;;;;;;4999396;28;20056;-86
2022/06/22 12:32:49;;;;;;;2.27;0.50;;;31.00;42.90;;;;;;4996609;28;20018;-85
2022/06/22 12:35:31;;;;;;;1.17;0.40;;;31.10;42.70;;;;;;4996558;28;20042;-87
2022/06/22 12:38:00;;;;;;;1.35;0.40;;;31.30;42.00;;;;;;5000094;28;20022;-86
2022/06/22 12:40:43;;;;;;;1.80;0.40;;;31.50;41.70;;;;;;5004355;28;20023;-85
2022/06/22 12:43:15;;;;;;;;;;;31.70;41.40;;;;;;5005082;28;20025;-86
2022/06/22 12:45:59;;;;;;;1.63;0.40;;;31.90;41.60;;;;;;5015749;28;19901;-84
2022/06/22 12:48:56;;;;;;;3.10;0.38;;;32.10;40.80;;;;;;5016033;28;20033;-88
2022/06/22 12:51:33;;;;;;;4.35;0.40;;;32.30;39.90;;;;;;5015697;28;20022;-85
2022/06/22 12:54:14;;;;;;;1.77;0.40;;;32.50;40.30;;;;;;5015622;28;20030;-86
2022/06/22 12:56:47;;;;;;;2.55;0.50;;;32.70;39.60;;;;;;5013577;28;20469;-82
2022/06/22 12:59:15;;;;;;;1.10;0.30;;;33.00;39.60;;;;;;5013263;28;20018;-82
2022/06/22 13:01:42;;;;;;;2.55;0.40;;;33.20;39.50;;;;;;5028131;28;20018;-83
2022/06/22 13:04:17;;;;;;;1.98;0.35;;;33.30;39.20;;;;;;4996349;28;20381;-83
2022/06/22 13:06:50;;;;;;;1.30;0.45;;;33.50;38.90;;;;;;5013291;28;20022;-84
2022/06/22 13:09:16;;;;;;;2.13;0.40;;;33.60;38.70;;;;;;5013102;28;20018;-85
2022/06/22 13:11:43;;;;;;;2.28;0.60;;;33.80;38.70;;;;;;5006364;28;20021;-86
2022/06/22 13:14:38;;;;;;;1.40;0.30;;;33.90;38.30;;;;;;4996841;28;20128;-86
2022/06/22 13:17:13;;;;;;;2.03;0.50;;;34.10;37.40;;;;;;5014721;28;20030;-85
2022/06/22 13:20:06;;;;;;;1.20;0.30;;;34.20;37.30;;;;;;5008670;28;20014;-85
2022/06/22 13:22:43;;;;;;;1.33;0.40;;;34.40;36.80;;;;;;5014865;28;20061;-84
2022/06/22 13:25:16;;;;;;;1.05;0.30;;;34.60;36.80;;;;;;5012453;28;20054;-85
2022/06/22 13:27:57;;;;;;;1.17;0.40;;;34.70;36.60;;;;;;5008047;28;20065;-84
2022/06/22 13:30:28;;;;;;;2.63;0.50;;;34.90;36.70;;;;;;4999339;28;20344;-84
2022/06/22 13:33:06;;;;;;;2.20;0.40;;;35.10;36.40;;;;;;5002973;28;20019;-85
2022/06/22 13:35:42;;;;;;;2.83;0.47;;;35.30;35.90;;;;;;4993242;28;20042;-85
2022/06/22 13:38:44;;;;;;;1.40;0.40;;;35.40;35.70;;;;;;4994206;28;20038;-86
2022/06/22 13:41:25;;;;;;;0.90;0.40;;;35.60;35.10;;;;;;4994011;28;20030;-85
2022/06/22 13:44:08;;;;;;;1.42;0.30;;;35.70;35.10;;;;;;4993793;28;20124;-84
2022/06/22 13:47:12;;;;;;;1.17;0.50;;;35.80;35.10;;;;;;4993948;28;20018;-83
2022/06/22 13:50:13;;;;;;;1.13;0.35;;;35.90;35.20;;;;;;4997395;28;20371;-84
2022/06/22 13:52:45;;;;;;;1.38;0.30;;;36.00;35.40;;;;;;4995938;28;20126;-83
2022/06/22 13:55:29;;;;;;;1.65;0.40;;;36.10;35.40;;;;;;4994194;28;20045;-84
2022/06/22 13:58:12;;;;;;;1.98;0.30;;;36.20;35.20;;;;;;4996744;28;20029;-85
2022/06/22 14:00:43;;;;;;;3.17;0.50;;;36.30;34.80;;;;;;5009683;28;20109;-83
2022/06/22 14:03:23;;;;;;;1.80;0.40;;;36.40;34.30;;;;;;4993346;28;20022;-84
2022/06/22 14:05:55;;;;;;;1.65;0.40;;;36.40;34.30;;;;;;5009780;28;20094;-84